Hamiter, Arkansas
Current Conditions -  °F | °C
As of 3:53 AM on Sunday 26 Oct 2014 (Local Time) from KLIT Reporting Station
Light Fog Light Fog  
Wind Chill: 61°   Ceiling: Unl
Heat Index: 61°   Visibility: 3mi
Dew Point: 58°   Wind: 3mph
Humidity: 90%   Direction: 230°SW
Pressure: 29.99"   Gusts: NA
Location:  34.7054°N, 92.1029°W
Report Text: KLIT 260853Z 23003KT 3SM BR MIFG CLR 16/14 A2999 RMK AO2 SLP157 VIS 2 E T01610144 58008 $
Loading
Personal Weather Stations






























Interactive Weather Map
Tropical Storm Tracking
New forecast layout! Learn more

10-Day Weather Forecast

Advertisements
Track Severe Weather on mobile